sensor_id;sensor_type;location;lat;lon;timestamp;P1;durP1;ratioP1;P2;durP2;ratioP2
53875;SDS011;39789;53.216;5.624;2023-03-16T00:00:43;8.80;;;4.82;;
53875;SDS011;39789;53.216;5.624;2023-03-16T00:03:10;8.60;;;5.10;;
53875;SDS011;39789;53.216;5.624;2023-03-16T00:05:36;6.68;;;5.00;;
53875;SDS011;39789;53.216;5.624;2023-03-16T00:08:03;7.93;;;4.20;;
53875;SDS011;39789;53.216;5.624;2023-03-16T00:10:29;10.27;;;4.85;;
53875;SDS011;39789;53.216;5.624;2023-03-16T00:12:55;7.00;;;4.25;;
53875;SDS011;39789;53.216;5.624;2023-03-16T00:15:23;8.48;;;4.90;;
53875;SDS011;39789;53.216;5.624;2023-03-16T00:17:50;6.43;;;4.63;;
53875;SDS011;39789;53.216;5.624;2023-03-16T00:20:16;7.25;;;5.05;;
53875;SDS011;39789;53.216;5.624;2023-03-16T00:22:43;7.30;;;5.03;;
53875;SDS011;39789;53.216;5.624;2023-03-16T00:25:13;6.75;;;4.30;;
53875;SDS011;39789;53.216;5.624;2023-03-16T00:27:39;6.20;;;4.45;;
53875;SDS011;39789;53.216;5.624;2023-03-16T00:30:05;6.28;;;4.43;;
53875;SDS011;39789;53.216;5.624;2023-03-16T00:32:33;8.18;;;4.88;;
53875;SDS011;39789;53.216;5.624;2023-03-16T00:35:02;8.77;;;4.50;;
53875;SDS011;39789;53.216;5.624;2023-03-16T00:37:30;8.75;;;4.15;;
53875;SDS011;39789;53.216;5.624;2023-03-16T00:39:57;6.90;;;4.30;;
53875;SDS011;39789;53.216;5.624;2023-03-16T00:42:27;6.63;;;4.30;;
53875;SDS011;39789;53.216;5.624;2023-03-16T00:44:54;8.43;;;5.07;;
53875;SDS011;39789;53.216;5.624;2023-03-16T00:47:25;8.50;;;4.47;;
53875;SDS011;39789;53.216;5.624;2023-03-16T00:50:11;7.72;;;4.55;;
53875;SDS011;39789;53.216;5.624;2023-03-16T00:52:40;6.45;;;5.00;;
53875;SDS011;39789;53.216;5.624;2023-03-16T00:55:06;8.05;;;5.05;;
53875;SDS011;39789;53.216;5.624;2023-03-16T00:57:32;7.32;;;4.43;;
53875;SDS011;39789;53.216;5.624;2023-03-16T00:59:58;9.25;;;4.30;;
53875;SDS011;39789;53.216;5.624;2023-03-16T01:02:24;6.70;;;4.63;;
53875;SDS011;39789;53.216;5.624;2023-03-16T01:04:51;8.57;;;4.72;;
53875;SDS011;39789;53.216;5.624;2023-03-16T01:07:18;6.25;;;4.47;;
53875;SDS011;39789;53.216;5.624;2023-03-16T01:09:45;8.05;;;4.55;;
53875;SDS011;39789;53.216;5.624;2023-03-16T01:12:13;6.78;;;4.68;;
53875;SDS011;39789;53.216;5.624;2023-03-16T01:14:41;8.38;;;4.75;;
53875;SDS011;39789;53.216;5.624;2023-03-16T01:17:13;8.05;;;4.95;;
53875;SDS011;39789;53.216;5.624;2023-03-16T01:19:42;7.53;;;4.50;;
53875;SDS011;39789;53.216;5.624;2023-03-16T01:22:10;6.32;;;4.38;;
53875;SDS011;39789;53.216;5.624;2023-03-16T01:24:36;7.88;;;5.15;;
53875;SDS011;39789;53.216;5.624;2023-03-16T01:27:03;6.53;;;4.75;;
53875;SDS011;39789;53.216;5.624;2023-03-16T01:29:29;6.38;;;4.95;;
53875;SDS011;39789;53.216;5.624;2023-03-16T01:31:56;5.75;;;4.50;;
53875;SDS011;39789;53.216;5.624;2023-03-16T01:34:21;6.03;;;4.65;;
53875;SDS011;39789;53.216;5.624;2023-03-16T01:36:48;6.97;;;4.75;;
53875;SDS011;39789;53.216;5.624;2023-03-16T01:39:16;7.22;;;4.70;;
53875;SDS011;39789;53.216;5.624;2023-03-16T01:41:43;6.80;;;4.68;;
53875;SDS011;39789;53.216;5.624;2023-03-16T01:44:15;6.40;;;4.78;;
53875;SDS011;39789;53.216;5.624;2023-03-16T01:46:44;6.80;;;4.65;;
53875;SDS011;39789;53.216;5.624;2023-03-16T01:57:10;10.02;;;5.65;;
53875;SDS011;39789;53.216;5.624;2023-03-16T01:59:42;7.05;;;5.03;;
53875;SDS011;39789;53.216;5.624;2023-03-16T02:02:36;8.65;;;5.38;;
53875;SDS011;39789;53.216;5.624;2023-03-16T02:07:47;8.07;;;5.38;;
53875;SDS011;39789;53.216;5.624;2023-03-16T02:10:31;7.70;;;5.60;;
53875;SDS011;39789;53.216;5.624;2023-03-16T02:12:59;10.80;;;5.13;;
53875;SDS011;39789;53.216;5.624;2023-03-16T02:15:25;9.15;;;5.57;;
53875;SDS011;39789;53.216;5.624;2023-03-16T02:17:51;7.55;;;5.80;;
53875;SDS011;39789;53.216;5.624;2023-03-16T02:20:31;9.68;;;5.72;;
53875;SDS011;39789;53.216;5.624;2023-03-16T02:23:04;8.15;;;5.57;;
53875;SDS011;39789;53.216;5.624;2023-03-16T02:25:36;6.18;;;5.57;;
53875;SDS011;39789;53.216;5.624;2023-03-16T02:28:17;7.10;;;5.70;;
53875;SDS011;39789;53.216;5.624;2023-03-16T02:31:02;8.50;;;5.97;;
53875;SDS011;39789;53.216;5.624;2023-03-16T02:33:29;8.77;;;5.97;;
53875;SDS011;39789;53.216;5.624;2023-03-16T02:35:56;7.72;;;5.63;;
53875;SDS011;39789;53.216;5.624;2023-03-16T02:38:21;9.48;;;6.18;;
53875;SDS011;39789;53.216;5.624;2023-03-16T02:40:53;8.23;;;5.97;;
53875;SDS011;39789;53.216;5.624;2023-03-16T02:43:23;9.10;;;6.38;;
53875;SDS011;39789;53.216;5.624;2023-03-16T02:45:57;6.68;;;5.57;;
53875;SDS011;39789;53.216;5.624;2023-03-16T02:48:38;8.20;;;6.30;;
53875;SDS011;39789;53.216;5.624;2023-03-16T02:51:21;7.50;;;6.10;;
53875;SDS011;39789;53.216;5.624;2023-03-16T02:53:47;8.57;;;6.57;;
53875;SDS011;39789;53.216;5.624;2023-03-16T02:56:13;9.73;;;5.82;;
53875;SDS011;39789;53.216;5.624;2023-03-16T02:58:39;9.90;;;6.18;;
53875;SDS011;39789;53.216;5.624;2023-03-16T03:01:04;10.10;;;6.18;;
53875;SDS011;39789;53.216;5.624;2023-03-16T03:03:30;10.07;;;6.10;;
53875;SDS011;39789;53.216;5.624;2023-03-16T03:05:58;7.30;;;6.43;;
53875;SDS011;39789;53.216;5.624;2023-03-16T03:08:24;9.00;;;6.40;;
53875;SDS011;39789;53.216;5.624;2023-03-16T03:10:49;10.02;;;6.65;;
53875;SDS011;39789;53.216;5.624;2023-03-16T03:13:15;8.70;;;6.13;;
53875;SDS011;39789;53.216;5.624;2023-03-16T03:15:41;10.35;;;7.18;;
53875;SDS011;39789;53.216;5.624;2023-03-16T03:18:07;7.50;;;6.18;;
53875;SDS011;39789;53.216;5.624;2023-03-16T03:20:33;8.13;;;6.25;;
53875;SDS011;39789;53.216;5.624;2023-03-16T03:22:58;8.30;;;6.32;;
53875;SDS011;39789;53.216;5.624;2023-03-16T03:25:24;6.88;;;5.88;;
53875;SDS011;39789;53.216;5.624;2023-03-16T03:27:51;7.30;;;6.47;;
53875;SDS011;39789;53.216;5.624;2023-03-16T03:30:20;9.35;;;6.40;;
53875;SDS011;39789;53.216;5.624;2023-03-16T03:32:48;6.97;;;6.20;;
53875;SDS011;39789;53.216;5.624;2023-03-16T03:35:14;12.50;;;6.78;;
53875;SDS011;39789;53.216;5.624;2023-03-16T03:37:40;10.02;;;6.13;;
53875;SDS011;39789;53.216;5.624;2023-03-16T03:40:10;7.82;;;6.47;;
53875;SDS011;39789;53.216;5.624;2023-03-16T03:42:37;8.45;;;6.57;;
53875;SDS011;39789;53.216;5.624;2023-03-16T03:45:04;9.00;;;6.55;;
53875;SDS011;39789;53.216;5.624;2023-03-16T03:47:31;8.57;;;6.50;;
53875;SDS011;39789;53.216;5.624;2023-03-16T03:49:57;10.25;;;7.00;;
53875;SDS011;39789;53.216;5.624;2023-03-16T03:52:26;8.50;;;7.10;;
53875;SDS011;39789;53.216;5.624;2023-03-16T03:54:52;7.65;;;6.85;;
53875;SDS011;39789;53.216;5.624;2023-03-16T03:57:18;11.27;;;6.75;;
53875;SDS011;39789;53.216;5.624;2023-03-16T03:59:43;9.30;;;7.00;;
53875;SDS011;39789;53.216;5.624;2023-03-16T04:02:09;7.53;;;6.70;;
53875;SDS011;39789;53.216;5.624;2023-03-16T04:04:35;8.93;;;6.95;;
53875;SDS011;39789;53.216;5.624;2023-03-16T04:07:05;9.20;;;7.00;;
53875;SDS011;39789;53.216;5.624;2023-03-16T04:09:31;8.75;;;6.47;;
53875;SDS011;39789;53.216;5.624;2023-03-16T04:12:00;7.55;;;6.78;;
53875;SDS011;39789;53.216;5.624;2023-03-16T04:14:28;8.02;;;7.05;;
53875;SDS011;39789;53.216;5.624;2023-03-16T04:16:54;8.35;;;6.93;;
53875;SDS011;39789;53.216;5.624;2023-03-16T04:19:21;8.90;;;7.43;;
53875;SDS011;39789;53.216;5.624;2023-03-16T04:21:48;12.38;;;6.97;;
53875;SDS011;39789;53.216;5.624;2023-03-16T04:24:16;9.55;;;7.25;;
53875;SDS011;39789;53.216;5.624;2023-03-16T04:26:42;8.82;;;7.75;;
53875;SDS011;39789;53.216;5.624;2023-03-16T04:29:11;8.10;;;7.22;;
53875;SDS011;39789;53.216;5.624;2023-03-16T04:31:40;11.40;;;7.45;;
53875;SDS011;39789;53.216;5.624;2023-03-16T04:34:12;9.57;;;7.78;;
53875;SDS011;39789;53.216;5.624;2023-03-16T04:36:39;9.77;;;7.78;;
53875;SDS011;39789;53.216;5.624;2023-03-16T04:39:06;10.35;;;7.70;;
53875;SDS011;39789;53.216;5.624;2023-03-16T04:41:33;8.25;;;7.38;;
53875;SDS011;39789;53.216;5.624;2023-03-16T04:43:59;10.48;;;8.02;;
53875;SDS011;39789;53.216;5.624;2023-03-16T04:46:28;8.70;;;7.50;;
53875;SDS011;39789;53.216;5.624;2023-03-16T04:48:54;8.13;;;7.10;;
53875;SDS011;39789;53.216;5.624;2023-03-16T04:51:22;8.93;;;7.75;;
53875;SDS011;39789;53.216;5.624;2023-03-16T04:53:49;9.68;;;7.25;;
53875;SDS011;39789;53.216;5.624;2023-03-16T04:56:20;10.73;;;8.05;;
53875;SDS011;39789;53.216;5.624;2023-03-16T04:58:48;10.93;;;7.63;;
53875;SDS011;39789;53.216;5.624;2023-03-16T05:01:16;11.20;;;7.35;;
53875;SDS011;39789;53.216;5.624;2023-03-16T05:03:42;10.63;;;8.13;;
53875;SDS011;39789;53.216;5.624;2023-03-16T05:06:08;9.07;;;7.40;;
53875;SDS011;39789;53.216;5.624;2023-03-16T05:08:35;8.65;;;7.40;;
53875;SDS011;39789;53.216;5.624;2023-03-16T05:11:09;8.95;;;7.90;;
53875;SDS011;39789;53.216;5.624;2023-03-16T05:13:36;8.63;;;7.63;;
53875;SDS011;39789;53.216;5.624;2023-03-16T05:16:02;9.23;;;7.50;;
53875;SDS011;39789;53.216;5.624;2023-03-16T05:18:28;8.35;;;7.45;;
53875;SDS011;39789;53.216;5.624;2023-03-16T05:20:54;11.80;;;7.43;;
53875;SDS011;39789;53.216;5.624;2023-03-16T05:23:20;9.20;;;7.97;;
53875;SDS011;39789;53.216;5.624;2023-03-16T05:25:47;9.70;;;8.57;;
53875;SDS011;39789;53.216;5.624;2023-03-16T05:28:13;9.48;;;7.82;;
53875;SDS011;39789;53.216;5.624;2023-03-16T05:30:39;10.43;;;8.07;;
53875;SDS011;39789;53.216;5.624;2023-03-16T05:33:06;10.18;;;7.70;;
53875;SDS011;39789;53.216;5.624;2023-03-16T05:35:34;9.13;;;8.23;;
53875;SDS011;39789;53.216;5.624;2023-03-16T05:37:59;10.60;;;8.30;;
53875;SDS011;39789;53.216;5.624;2023-03-16T05:40:25;10.32;;;7.90;;
53875;SDS011;39789;53.216;5.624;2023-03-16T05:42:58;8.60;;;7.70;;
53875;SDS011;39789;53.216;5.624;2023-03-16T05:45:24;9.68;;;7.88;;
53875;SDS011;39789;53.216;5.624;2023-03-16T05:47:51;9.02;;;8.13;;
53875;SDS011;39789;53.216;5.624;2023-03-16T05:50:18;11.60;;;8.35;;
53875;SDS011;39789;53.216;5.624;2023-03-16T05:52:44;11.80;;;7.95;;
53875;SDS011;39789;53.216;5.624;2023-03-16T05:55:11;9.07;;;8.02;;
53875;SDS011;39789;53.216;5.624;2023-03-16T05:57:39;10.85;;;7.97;;
53875;SDS011;39789;53.216;5.624;2023-03-16T06:00:05;9.00;;;8.10;;
53875;SDS011;39789;53.216;5.624;2023-03-16T06:02:37;10.13;;;8.40;;
53875;SDS011;39789;53.216;5.624;2023-03-16T06:05:03;8.55;;;7.45;;
53875;SDS011;39789;53.216;5.624;2023-03-16T06:07:28;10.43;;;7.95;;
53875;SDS011;39789;53.216;5.624;2023-03-16T06:09:54;11.90;;;8.48;;
53875;SDS011;39789;53.216;5.624;2023-03-16T06:12:21;10.65;;;8.07;;
53875;SDS011;39789;53.216;5.624;2023-03-16T06:14:47;8.48;;;7.57;;
53875;SDS011;39789;53.216;5.624;2023-03-16T06:17:13;9.70;;;8.30;;
53875;SDS011;39789;53.216;5.624;2023-03-16T06:19:38;8.77;;;7.88;;
53875;SDS011;39789;53.216;5.624;2023-03-16T06:22:10;10.27;;;8.32;;
53875;SDS011;39789;53.216;5.624;2023-03-16T06:24:36;10.52;;;8.68;;
53875;SDS011;39789;53.216;5.624;2023-03-16T06:27:02;9.82;;;8.38;;
53875;SDS011;39789;53.216;5.624;2023-03-16T06:29:28;10.45;;;8.20;;
53875;SDS011;39789;53.216;5.624;2023-03-16T06:31:53;9.52;;;8.63;;
53875;SDS011;39789;53.216;5.624;2023-03-16T06:34:21;9.15;;;8.25;;
53875;SDS011;39789;53.216;5.624;2023-03-16T06:36:46;10.40;;;8.70;;
53875;SDS011;39789;53.216;5.624;2023-03-16T06:39:12;10.60;;;9.05;;
53875;SDS011;39789;53.216;5.624;2023-03-16T06:41:38;9.55;;;8.55;;
53875;SDS011;39789;53.216;5.624;2023-03-16T06:44:08;11.48;;;8.95;;
53875;SDS011;39789;53.216;5.624;2023-03-16T06:46:33;10.45;;;8.32;;
53875;SDS011;39789;53.216;5.624;2023-03-16T06:48:59;11.77;;;8.52;;
53875;SDS011;39789;53.216;5.624;2023-03-16T06:51:26;10.55;;;8.50;;
53875;SDS011;39789;53.216;5.624;2023-03-16T06:53:57;10.43;;;8.38;;
53875;SDS011;39789;53.216;5.624;2023-03-16T06:56:25;10.95;;;8.80;;
53875;SDS011;39789;53.216;5.624;2023-03-16T06:58:52;11.45;;;9.15;;
53875;SDS011;39789;53.216;5.624;2023-03-16T07:01:17;10.45;;;8.88;;
53875;SDS011;39789;53.216;5.624;2023-03-16T07:03:43;9.38;;;8.38;;
53875;SDS011;39789;53.216;5.624;2023-03-16T07:06:10;11.55;;;9.02;;
53875;SDS011;39789;53.216;5.624;2023-03-16T07:08:36;11.30;;;8.90;;
53875;SDS011;39789;53.216;5.624;2023-03-16T07:11:01;12.43;;;8.75;;
53875;SDS011;39789;53.216;5.624;2023-03-16T07:13:27;10.45;;;8.65;;
53875;SDS011;39789;53.216;5.624;2023-03-16T07:15:53;10.00;;;8.32;;
53875;SDS011;39789;53.216;5.624;2023-03-16T07:18:19;10.43;;;8.23;;
53875;SDS011;39789;53.216;5.624;2023-03-16T07:20:45;10.32;;;8.02;;
53875;SDS011;39789;53.216;5.624;2023-03-16T07:23:11;57.85;;;13.70;;
53875;SDS011;39789;53.216;5.624;2023-03-16T07:25:37;13.10;;;9.00;;
53875;SDS011;39789;53.216;5.624;2023-03-16T07:28:02;11.13;;;9.15;;
53875;SDS011;39789;53.216;5.624;2023-03-16T07:30:28;13.27;;;9.00;;
53875;SDS011;39789;53.216;5.624;2023-03-16T07:32:54;13.50;;;8.80;;
53875;SDS011;39789;53.216;5.624;2023-03-16T07:35:19;9.95;;;8.00;;
53875;SDS011;39789;53.216;5.624;2023-03-16T07:37:46;8.88;;;7.97;;
53875;SDS011;39789;53.216;5.624;2023-03-16T07:40:12;11.27;;;8.38;;
53875;SDS011;39789;53.216;5.624;2023-03-16T07:42:38;7.85;;;7.03;;
53875;SDS011;39789;53.216;5.624;2023-03-16T07:45:04;9.98;;;8.82;;
53875;SDS011;39789;53.216;5.624;2023-03-16T07:47:30;76.32;;;15.40;;
53875;SDS011;39789;53.216;5.624;2023-03-16T07:49:57;8.73;;;7.82;;
53875;SDS011;39789;53.216;5.624;2023-03-16T07:52:23;13.18;;;8.38;;
53875;SDS011;39789;53.216;5.624;2023-03-16T07:54:49;10.23;;;8.38;;
53875;SDS011;39789;53.216;5.624;2023-03-16T07:57:15;10.15;;;8.18;;
53875;SDS011;39789;53.216;5.624;2023-03-16T07:59:40;11.65;;;8.93;;
53875;SDS011;39789;53.216;5.624;2023-03-16T08:02:10;11.25;;;8.40;;
53875;SDS011;39789;53.216;5.624;2023-03-16T08:04:37;8.68;;;7.78;;
53875;SDS011;39789;53.216;5.624;2023-03-16T08:07:06;11.02;;;8.18;;
53875;SDS011;39789;53.216;5.624;2023-03-16T08:09:32;9.93;;;8.05;;
53875;SDS011;39789;53.216;5.624;2023-03-16T08:12:00;10.15;;;8.00;;
53875;SDS011;39789;53.216;5.624;2023-03-16T08:14:27;10.23;;;8.32;;
53875;SDS011;39789;53.216;5.624;2023-03-16T08:16:53;9.95;;;7.68;;
53875;SDS011;39789;53.216;5.624;2023-03-16T08:19:19;66.40;;;14.65;;
53875;SDS011;39789;53.216;5.624;2023-03-16T08:21:44;12.07;;;7.93;;
53875;SDS011;39789;53.216;5.624;2023-03-16T08:24:10;9.30;;;7.53;;
53875;SDS011;39789;53.216;5.624;2023-03-16T08:26:35;10.35;;;8.32;;
53875;SDS011;39789;53.216;5.624;2023-03-16T08:29:01;9.00;;;7.13;;
53875;SDS011;39789;53.216;5.624;2023-03-16T08:31:27;8.75;;;7.75;;
53875;SDS011;39789;53.216;5.624;2023-03-16T08:33:55;13.38;;;8.85;;
53875;SDS011;39789;53.216;5.624;2023-03-16T08:36:21;9.55;;;7.85;;
53875;SDS011;39789;53.216;5.624;2023-03-16T08:38:47;10.43;;;8.38;;
53875;SDS011;39789;53.216;5.624;2023-03-16T08:41:12;12.65;;;8.40;;
53875;SDS011;39789;53.216;5.624;2023-03-16T08:43:40;11.27;;;9.10;;
53875;SDS011;39789;53.216;5.624;2023-03-16T08:46:06;12.48;;;9.40;;
53875;SDS011;39789;53.216;5.624;2023-03-16T08:48:32;10.00;;;8.88;;
53875;SDS011;39789;53.216;5.624;2023-03-16T08:51:02;12.75;;;9.07;;
53875;SDS011;39789;53.216;5.624;2023-03-16T08:53:29;9.45;;;8.38;;
53875;SDS011;39789;53.216;5.624;2023-03-16T08:56:05;9.20;;;8.32;;
53875;SDS011;39789;53.216;5.624;2023-03-16T08:58:33;11.40;;;8.07;;
53875;SDS011;39789;53.216;5.624;2023-03-16T09:01:00;11.95;;;8.32;;
53875;SDS011;39789;53.216;5.624;2023-03-16T09:03:29;10.93;;;8.35;;
53875;SDS011;39789;53.216;5.624;2023-03-16T09:06:03;12.43;;;7.80;;
53875;SDS011;39789;53.216;5.624;2023-03-16T09:08:31;9.23;;;8.10;;
53875;SDS011;39789;53.216;5.624;2023-03-16T09:10:58;22.52;;;10.35;;
53875;SDS011;39789;53.216;5.624;2023-03-16T09:13:25;19.23;;;8.57;;
53875;SDS011;39789;53.216;5.624;2023-03-16T09:15:51;9.52;;;7.57;;
53875;SDS011;39789;53.216;5.624;2023-03-16T09:18:17;8.77;;;7.05;;
53875;SDS011;39789;53.216;5.624;2023-03-16T09:20:43;9.10;;;7.50;;
53875;SDS011;39789;53.216;5.624;2023-03-16T09:23:11;10.43;;;7.43;;
53875;SDS011;39789;53.216;5.624;2023-03-16T09:25:38;10.15;;;7.80;;
53875;SDS011;39789;53.216;5.624;2023-03-16T09:28:03;10.95;;;7.53;;
53875;SDS011;39789;53.216;5.624;2023-03-16T09:30:29;9.73;;;7.25;;
53875;SDS011;39789;53.216;5.624;2023-03-16T09:32:56;11.18;;;8.18;;
53875;SDS011;39789;53.216;5.624;2023-03-16T09:35:22;12.60;;;7.85;;
53875;SDS011;39789;53.216;5.624;2023-03-16T09:37:47;32.42;;;9.85;;
53875;SDS011;39789;53.216;5.624;2023-03-16T09:40:21;9.98;;;8.13;;
53875;SDS011;39789;53.216;5.624;2023-03-16T09:43:09;9.23;;;7.72;;
53875;SDS011;39789;53.216;5.624;2023-03-16T09:46:06;12.00;;;7.95;;
53875;SDS011;39789;53.216;5.624;2023-03-16T09:48:37;11.40;;;7.75;;
53875;SDS011;39789;53.216;5.624;2023-03-16T09:51:06;10.57;;;7.75;;
53875;SDS011;39789;53.216;5.624;2023-03-16T09:53:38;11.77;;;7.78;;
53875;SDS011;39789;53.216;5.624;2023-03-16T09:56:06;14.82;;;7.53;;
53875;SDS011;39789;53.216;5.624;2023-03-16T09:58:33;8.82;;;6.93;;
53875;SDS011;39789;53.216;5.624;2023-03-16T10:01:06;10.50;;;8.23;;
53875;SDS011;39789;53.216;5.624;2023-03-16T10:06:39;11.38;;;8.27;;
53875;SDS011;39789;53.216;5.624;2023-03-16T10:11:52;10.50;;;8.38;;
53875;SDS011;39789;53.216;5.624;2023-03-16T10:14:24;10.30;;;8.07;;
53875;SDS011;39789;53.216;5.624;2023-03-16T10:17:00;45.65;;;11.45;;
53875;SDS011;39789;53.216;5.624;2023-03-16T10:19:37;12.60;;;7.28;;
53875;SDS011;39789;53.216;5.624;2023-03-16T10:22:52;9.10;;;7.43;;
53875;SDS011;39789;53.216;5.624;2023-03-16T10:25:08;9.60;;;7.95;;
53875;SDS011;39789;53.216;5.624;2023-03-16T10:27:41;10.25;;;8.50;;
53875;SDS011;39789;53.216;5.624;2023-03-16T10:32:49;9.63;;;7.18;;
53875;SDS011;39789;53.216;5.624;2023-03-16T10:35:21;10.60;;;7.60;;
53875;SDS011;39789;53.216;5.624;2023-03-16T10:38:06;9.55;;;7.40;;
53875;SDS011;39789;53.216;5.624;2023-03-16T10:40:35;10.35;;;7.60;;
53875;SDS011;39789;53.216;5.624;2023-03-16T10:43:21;10.27;;;7.38;;
53875;SDS011;39789;53.216;5.624;2023-03-16T10:45:48;8.77;;;7.43;;
53875;SDS011;39789;53.216;5.624;2023-03-16T10:48:18;11.38;;;7.88;;
53875;SDS011;39789;53.216;5.624;2023-03-16T10:50:49;8.35;;;6.90;;
53875;SDS011;39789;53.216;5.624;2023-03-16T10:53:24;9.70;;;7.13;;
53875;SDS011;39789;53.216;5.624;2023-03-16T10:56:00;10.63;;;7.25;;
53875;SDS011;39789;53.216;5.624;2023-03-16T10:58:33;9.77;;;7.47;;
53875;SDS011;39789;53.216;5.624;2023-03-16T11:01:08;7.82;;;6.18;;
53875;SDS011;39789;53.216;5.624;2023-03-16T11:03:39;9.80;;;7.07;;
53875;SDS011;39789;53.216;5.624;2023-03-16T11:06:14;11.00;;;6.78;;
53875;SDS011;39789;53.216;5.624;2023-03-16T11:08:47;15.57;;;6.63;;
53875;SDS011;39789;53.216;5.624;2023-03-16T11:11:23;11.38;;;6.93;;
53875;SDS011;39789;53.216;5.624;2023-03-16T11:13:57;12.05;;;8.02;;
53875;SDS011;39789;53.216;5.624;2023-03-16T11:19:28;8.00;;;6.53;;
53875;SDS011;39789;53.216;5.624;2023-03-16T11:22:03;9.90;;;6.60;;
53875;SDS011;39789;53.216;5.624;2023-03-16T11:24:38;8.70;;;6.43;;
53875;SDS011;39789;53.216;5.624;2023-03-16T11:30:13;9.75;;;6.85;;
53875;SDS011;39789;53.216;5.624;2023-03-16T11:32:47;7.63;;;5.70;;
53875;SDS011;39789;53.216;5.624;2023-03-16T11:35:18;8.70;;;6.13;;
53875;SDS011;39789;53.216;5.624;2023-03-16T11:37:53;9.70;;;5.13;;
53875;SDS011;39789;53.216;5.624;2023-03-16T11:45:43;8.98;;;5.53;;
53875;SDS011;39789;53.216;5.624;2023-03-16T11:51:03;10.38;;;5.15;;
53875;SDS011;39789;53.216;5.624;2023-03-16T11:53:51;9.65;;;5.25;;
53875;SDS011;39789;53.216;5.624;2023-03-16T12:08:00;8.73;;;4.97;;
53875;SDS011;39789;53.216;5.624;2023-03-16T12:19:40;7.85;;;5.53;;
53875;SDS011;39789;53.216;5.624;2023-03-16T12:22:40;6.85;;;4.97;;
53875;SDS011;39789;53.216;5.624;2023-03-16T12:25:17;5.75;;;4.55;;
53875;SDS011;39789;53.216;5.624;2023-03-16T12:27:50;7.47;;;4.70;;
53875;SDS011;39789;53.216;5.624;2023-03-16T12:30:23;7.22;;;4.43;;
53875;SDS011;39789;53.216;5.624;2023-03-16T12:33:03;6.78;;;5.13;;
53875;SDS011;39789;53.216;5.624;2023-03-16T12:49:12;7.85;;;5.10;;
53875;SDS011;39789;53.216;5.624;2023-03-16T12:51:40;8.30;;;5.82;;
53875;SDS011;39789;53.216;5.624;2023-03-16T12:54:17;7.55;;;5.05;;
53875;SDS011;39789;53.216;5.624;2023-03-16T12:56:48;8.27;;;5.45;;
53875;SDS011;39789;53.216;5.624;2023-03-16T12:59:16;5.70;;;5.00;;
53875;SDS011;39789;53.216;5.624;2023-03-16T13:01:47;6.80;;;4.90;;
53875;SDS011;39789;53.216;5.624;2023-03-16T13:04:20;7.22;;;5.20;;
53875;SDS011;39789;53.216;5.624;2023-03-16T13:07:05;8.18;;;4.88;;
53875;SDS011;39789;53.216;5.624;2023-03-16T13:09:39;6.97;;;5.07;;
53875;SDS011;39789;53.216;5.624;2023-03-16T13:12:19;10.88;;;5.85;;
53875;SDS011;39789;53.216;5.624;2023-03-16T13:14:50;7.47;;;5.43;;
53875;SDS011;39789;53.216;5.624;2023-03-16T13:17:22;9.63;;;5.88;;
53875;SDS011;39789;53.216;5.624;2023-03-16T13:22:48;6.10;;;4.90;;
53875;SDS011;39789;53.216;5.624;2023-03-16T13:28:09;9.27;;;5.68;;
53875;SDS011;39789;53.216;5.624;2023-03-16T13:30:47;8.35;;;5.82;;
53875;SDS011;39789;53.216;5.624;2023-03-16T13:33:18;9.30;;;5.53;;
53875;SDS011;39789;53.216;5.624;2023-03-16T13:35:56;9.88;;;5.03;;
53875;SDS011;39789;53.216;5.624;2023-03-16T13:38:23;7.53;;;5.45;;
53875;SDS011;39789;53.216;5.624;2023-03-16T13:40:53;8.48;;;5.40;;
53875;SDS011;39789;53.216;5.624;2023-03-16T13:43:25;6.40;;;5.32;;
53875;SDS011;39789;53.216;5.624;2023-03-16T13:45:53;7.18;;;5.35;;
53875;SDS011;39789;53.216;5.624;2023-03-16T13:48:19;7.35;;;4.97;;
53875;SDS011;39789;53.216;5.624;2023-03-16T13:50:52;6.88;;;5.13;;
53875;SDS011;39789;53.216;5.624;2023-03-16T13:55:50;7.70;;;5.40;;
53875;SDS011;39789;53.216;5.624;2023-03-16T13:58:18;9.38;;;5.65;;
53875;SDS011;39789;53.216;5.624;2023-03-16T14:00:53;7.72;;;5.40;;
53875;SDS011;39789;53.216;5.624;2023-03-16T14:03:21;8.65;;;6.32;;
53875;SDS011;39789;53.216;5.624;2023-03-16T14:05:57;9.80;;;5.05;;
53875;SDS011;39789;53.216;5.624;2023-03-16T14:08:25;8.95;;;5.45;;
53875;SDS011;39789;53.216;5.624;2023-03-16T14:10:54;8.52;;;5.53;;
53875;SDS011;39789;53.216;5.624;2023-03-16T14:15:54;6.95;;;5.07;;
53875;SDS011;39789;53.216;5.624;2023-03-16T14:18:24;5.80;;;4.43;;
53875;SDS011;39789;53.216;5.624;2023-03-16T14:20:56;7.18;;;4.88;;
53875;SDS011;39789;53.216;5.624;2023-03-16T14:23:30;8.18;;;5.20;;
53875;SDS011;39789;53.216;5.624;2023-03-16T14:26:02;7.80;;;5.55;;
53875;SDS011;39789;53.216;5.624;2023-03-16T14:28:30;8.43;;;5.50;;
53875;SDS011;39789;53.216;5.624;2023-03-16T14:31:04;9.00;;;5.80;;
53875;SDS011;39789;53.216;5.624;2023-03-16T14:33:36;26.58;;;5.68;;
53875;SDS011;39789;53.216;5.624;2023-03-16T14:36:10;7.93;;;6.28;;
53875;SDS011;39789;53.216;5.624;2023-03-16T14:38:45;6.30;;;5.10;;
53875;SDS011;39789;53.216;5.624;2023-03-16T14:43:59;8.25;;;6.18;;
53875;SDS011;39789;53.216;5.624;2023-03-16T14:46:26;8.10;;;5.80;;
53875;SDS011;39789;53.216;5.624;2023-03-16T14:49:00;8.93;;;6.60;;
53875;SDS011;39789;53.216;5.624;2023-03-16T14:51:30;8.55;;;6.22;;
53875;SDS011;39789;53.216;5.624;2023-03-16T14:53:56;8.32;;;5.38;;
53875;SDS011;39789;53.216;5.624;2023-03-16T14:56:30;7.13;;;5.78;;
53875;SDS011;39789;53.216;5.624;2023-03-16T14:59:00;8.68;;;5.10;;
53875;SDS011;39789;53.216;5.624;2023-03-16T15:01:26;10.70;;;5.28;;
53875;SDS011;39789;53.216;5.624;2023-03-16T15:03:51;6.82;;;4.40;;
53875;SDS011;39789;53.216;5.624;2023-03-16T15:06:17;7.90;;;5.50;;
53875;SDS011;39789;53.216;5.624;2023-03-16T15:08:45;9.70;;;5.60;;
53875;SDS011;39789;53.216;5.624;2023-03-16T15:11:12;8.48;;;5.03;;
53875;SDS011;39789;53.216;5.624;2023-03-16T15:13:46;7.80;;;5.10;;
53875;SDS011;39789;53.216;5.624;2023-03-16T15:16:12;7.65;;;4.82;;
53875;SDS011;39789;53.216;5.624;2023-03-16T15:18:38;8.15;;;5.50;;
53875;SDS011;39789;53.216;5.624;2023-03-16T15:21:16;8.38;;;5.30;;
53875;SDS011;39789;53.216;5.624;2023-03-16T15:23:46;9.18;;;5.70;;
53875;SDS011;39789;53.216;5.624;2023-03-16T15:26:14;6.72;;;5.53;;
53875;SDS011;39789;53.216;5.624;2023-03-16T15:28:41;7.57;;;6.07;;
53875;SDS011;39789;53.216;5.624;2023-03-16T15:31:09;8.27;;;5.43;;
53875;SDS011;39789;53.216;5.624;2023-03-16T15:33:37;8.23;;;5.53;;
53875;SDS011;39789;53.216;5.624;2023-03-16T15:36:09;8.15;;;5.40;;
53875;SDS011;39789;53.216;5.624;2023-03-16T15:38:49;7.65;;;5.65;;
53875;SDS011;39789;53.216;5.624;2023-03-16T15:41:17;7.35;;;5.47;;
53875;SDS011;39789;53.216;5.624;2023-03-16T15:43:43;8.00;;;5.22;;
53875;SDS011;39789;53.216;5.624;2023-03-16T15:46:09;8.43;;;5.20;;
53875;SDS011;39789;53.216;5.624;2023-03-16T15:48:36;9.68;;;5.40;;
53875;SDS011;39789;53.216;5.624;2023-03-16T15:53:34;10.38;;;5.30;;
53875;SDS011;39789;53.216;5.624;2023-03-16T15:56:03;10.10;;;5.82;;
53875;SDS011;39789;53.216;5.624;2023-03-16T15:58:33;10.35;;;6.32;;
53875;SDS011;39789;53.216;5.624;2023-03-16T16:01:02;8.57;;;5.85;;
53875;SDS011;39789;53.216;5.624;2023-03-16T16:03:29;9.20;;;5.65;;
53875;SDS011;39789;53.216;5.624;2023-03-16T16:05:58;8.05;;;5.80;;
53875;SDS011;39789;53.216;5.624;2023-03-16T16:08:25;10.02;;;6.15;;
53875;SDS011;39789;53.216;5.624;2023-03-16T16:10:51;9.30;;;6.35;;
53875;SDS011;39789;53.216;5.624;2023-03-16T16:13:21;8.93;;;6.20;;
53875;SDS011;39789;53.216;5.624;2023-03-16T16:15:53;9.43;;;5.70;;
53875;SDS011;39789;53.216;5.624;2023-03-16T16:20:59;8.00;;;5.80;;